createdAt,value
2022-12-15T00:02:05.100Z,3.40
2022-12-15T00:04:50.164Z,4.50
2022-12-15T00:07:34.958Z,4.18
2022-12-15T00:10:19.751Z,5.47
2022-12-15T00:13:04.445Z,4.75
2022-12-15T00:15:49.101Z,5.10
2022-12-15T00:18:34.036Z,5.05
2022-12-15T00:21:19.287Z,4.72
2022-12-15T00:24:04.193Z,4.53
2022-12-15T00:26:49.389Z,4.05
2022-12-15T00:29:34.776Z,4.07
2022-12-15T00:32:19.619Z,4.97
2022-12-15T00:35:04.534Z,5.32
2022-12-15T00:37:49.455Z,4.57
2022-12-15T00:40:16.027Z,5.78
2022-12-15T00:42:42.476Z,4.68
2022-12-15T00:45:09.293Z,5.05
2022-12-15T00:47:36.488Z,4.07
2022-12-15T00:50:22.246Z,5.07
2022-12-15T00:53:07.057Z,4.88
2022-12-15T00:55:51.776Z,4.30
2022-12-15T00:58:36.658Z,4.40
2022-12-15T01:01:26.738Z,4.57
2022-12-15T01:04:12.031Z,3.67
2022-12-15T01:06:57.069Z,4.25
2022-12-15T01:09:42.379Z,4.50
2022-12-15T01:12:27.231Z,5.45
2022-12-15T01:15:11.971Z,4.97
2022-12-15T01:17:56.888Z,5.10
2022-12-15T01:20:23.334Z,5.22
2022-12-15T01:22:53.035Z,4.83
2022-12-15T01:25:22.094Z,5.38
2022-12-15T01:27:49.365Z,5.28
2022-12-15T01:30:18.912Z,4.73
2022-12-15T01:32:46.311Z,4.70
2022-12-15T01:35:13.410Z,5.07
2022-12-15T01:37:40.018Z,4.90
2022-12-15T01:40:27.770Z,4.93
2022-12-15T01:42:54.178Z,4.93
2022-12-15T01:45:45.022Z,5.18
2022-12-15T01:48:14.995Z,4.93
2022-12-15T01:50:46.859Z,4.97
2022-12-15T01:53:14.192Z,4.88
2022-12-15T01:55:44.217Z,4.77
2022-12-15T01:58:16.784Z,5.03
2022-12-15T02:00:43.611Z,4.85
2022-12-15T02:03:11.968Z,5.28
2022-12-15T02:05:41.285Z,4.38
2022-12-15T02:08:09.492Z,5.20
2022-12-15T02:10:56.379Z,4.82
2022-12-15T02:13:39.419Z,5.13
2022-12-15T02:16:20.685Z,4.50
2022-12-15T02:19:26.005Z,4.93
2022-12-15T02:22:07.568Z,4.40
2022-12-15T02:25:06.497Z,4.63
2022-12-15T02:27:51.664Z,5.38
2022-12-15T02:30:35.748Z,4.80
2022-12-15T02:33:11.531Z,3.55
2022-12-15T02:35:56.421Z,3.65
2022-12-15T02:38:38.439Z,4.07
2022-12-15T02:41:26.589Z,4.07
2022-12-15T02:43:52.991Z,4.47
2022-12-15T02:46:27.903Z,4.68
2022-12-15T02:49:18.358Z,4.17
2022-12-15T02:51:59.782Z,4.03
2022-12-15T02:54:29.126Z,4.30
2022-12-15T02:57:38.103Z,4.15
2022-12-15T03:00:10.566Z,4.55
2022-12-15T03:02:41.860Z,4.40
2022-12-15T03:05:09.317Z,4.65
2022-12-15T03:07:35.756Z,4.37
2022-12-15T03:10:05.123Z,4.22
2022-12-15T03:12:31.716Z,4.28
2022-12-15T03:14:58.138Z,3.83
2022-12-15T03:17:24.758Z,4.22
2022-12-15T03:19:51.219Z,4.50
2022-12-15T03:22:17.679Z,4.43
2022-12-15T03:24:44.037Z,5.03
2022-12-15T03:27:10.642Z,3.72
2022-12-15T03:29:37.041Z,4.60
2022-12-15T03:32:03.669Z,3.97
2022-12-15T03:34:30.171Z,4.10
2022-12-15T03:36:56.781Z,4.00
2022-12-15T03:39:23.247Z,3.80
2022-12-15T03:41:49.806Z,3.92
2022-12-15T03:44:16.359Z,5.43
2022-12-15T03:46:42.719Z,3.92
2022-12-15T03:49:09.167Z,5.22
2022-12-15T03:51:35.582Z,4.10
2022-12-15T03:54:01.921Z,4.13
2022-12-15T03:56:28.379Z,4.30
2022-12-15T03:58:54.779Z,4.43
2022-12-15T04:01:21.296Z,4.55
2022-12-15T04:03:47.906Z,4.33
2022-12-15T04:06:14.303Z,4.25
2022-12-15T04:08:40.722Z,4.72
2022-12-15T04:11:07.099Z,4.95
2022-12-15T04:13:33.972Z,3.97
2022-12-15T04:16:04.466Z,3.85
2022-12-15T04:18:30.851Z,4.28
2022-12-15T04:20:57.594Z,4.80
2022-12-15T04:23:24.350Z,4.50
2022-12-15T04:26:09.384Z,4.45
2022-12-15T04:28:55.393Z,3.77
2022-12-15T04:31:47.138Z,3.80
2022-12-15T04:34:36.579Z,4.20
2022-12-15T04:37:21.412Z,4.78
2022-12-15T04:40:08.654Z,4.05
2022-12-15T04:42:56.058Z,3.78
2022-12-15T04:45:43.519Z,4.75
2022-12-15T04:48:28.875Z,3.80
2022-12-15T04:51:14.391Z,3.53
2022-12-15T04:54:02.128Z,4.55
2022-12-15T04:56:47.468Z,4.60
2022-12-15T04:59:35.289Z,4.18
2022-12-15T05:02:20.321Z,4.00
2022-12-15T05:05:05.564Z,4.35
2022-12-15T05:07:50.347Z,3.72
2022-12-15T05:10:35.666Z,4.05
2022-12-15T05:13:25.205Z,3.60
2022-12-15T05:16:10.271Z,4.33
2022-12-15T05:18:55.441Z,4.30
2022-12-15T05:21:40.255Z,4.63
2022-12-15T05:24:25.690Z,3.47
2022-12-15T05:27:11.052Z,4.75
2022-12-15T05:29:55.661Z,3.40
2022-12-15T05:32:22.073Z,3.95
2022-12-15T05:34:48.500Z,4.35
2022-12-15T05:37:15.147Z,4.40
2022-12-15T05:39:42.166Z,4.07
2022-12-15T05:42:08.613Z,3.90
2022-12-15T05:44:35.005Z,5.30
2022-12-15T05:47:01.395Z,4.55
2022-12-15T05:49:27.840Z,4.23
2022-12-15T05:51:54.416Z,4.18
2022-12-15T05:54:20.956Z,4.35
2022-12-15T05:56:50.507Z,4.00
2022-12-15T05:59:17.772Z,3.58
2022-12-15T06:01:44.268Z,4.10
2022-12-15T06:04:12.741Z,4.75
2022-12-15T06:06:39.967Z,4.20
2022-12-15T06:09:08.463Z,5.05
2022-12-15T06:11:34.947Z,4.80
2022-12-15T06:14:01.345Z,4.27
2022-12-15T06:16:30.398Z,4.22
2022-12-15T06:19:00.343Z,5.07
2022-12-15T06:21:30.216Z,3.97
2022-12-15T06:23:57.228Z,3.83
2022-12-15T06:26:33.847Z,4.20
2022-12-15T06:29:04.573Z,4.65
2022-12-15T06:31:32.600Z,4.70
2022-12-15T06:34:02.418Z,5.30
2022-12-15T06:36:30.629Z,4.70
2022-12-15T06:39:02.126Z,3.97
2022-12-15T06:41:32.197Z,5.20
2022-12-15T06:43:59.923Z,4.05
2022-12-15T06:46:28.652Z,4.15
2022-12-15T06:48:55.399Z,4.45
2022-12-15T06:51:21.874Z,5.50
2022-12-15T06:53:54.040Z,4.75
2022-12-15T06:56:34.376Z,4.60
2022-12-15T06:59:03.468Z,4.90
2022-12-15T07:01:30.827Z,4.57
2022-12-15T07:03:59.955Z,4.37
2022-12-15T07:06:27.447Z,4.68
2022-12-15T07:08:56.470Z,5.60
2022-12-15T07:11:23.706Z,5.38
2022-12-15T07:13:51.507Z,4.68
2022-12-15T07:16:18.089Z,4.70
2022-12-15T07:18:44.579Z,5.50
2022-12-15T07:21:11.573Z,5.40
2022-12-15T07:23:55.899Z,4.53
2022-12-15T07:26:24.146Z,5.20
2022-12-15T07:28:50.782Z,6.10
2022-12-15T07:31:17.685Z,5.68
2022-12-15T07:33:44.360Z,5.55
2022-12-15T07:36:11.007Z,5.47
2022-12-15T07:38:37.617Z,5.20
2022-12-15T07:41:05.938Z,5.22
2022-12-15T07:43:32.935Z,5.47
2022-12-15T07:46:00.293Z,6.43
2022-12-15T07:48:27.378Z,5.85
2022-12-15T07:51:02.775Z,5.45
2022-12-15T07:53:34.224Z,5.13
2022-12-15T07:56:09.670Z,5.57
2022-12-15T07:58:37.868Z,5.53
2022-12-15T08:01:12.337Z,6.38
2022-12-15T08:03:40.013Z,6.22
2022-12-15T08:06:10.003Z,5.63
2022-12-15T08:08:37.042Z,6.10
2022-12-15T08:11:08.233Z,5.87
2022-12-15T08:16:21.909Z,5.28
2022-12-15T08:18:48.904Z,5.43
2022-12-15T08:21:15.550Z,4.97
2022-12-15T08:23:42.079Z,5.43
2022-12-15T08:26:11.824Z,5.40
2022-12-15T08:28:39.746Z,5.43
2022-12-15T08:31:08.786Z,6.22
2022-12-15T08:33:36.090Z,5.90
2022-12-15T08:36:05.962Z,5.10
2022-12-15T08:38:33.359Z,6.00
2022-12-15T08:41:10.818Z,6.28
2022-12-15T08:43:42.585Z,5.70
2022-12-15T08:46:12.899Z,5.25
2022-12-15T08:48:39.978Z,5.70
2022-12-15T08:51:06.869Z,6.03
2022-12-15T08:53:33.396Z,5.75
2022-12-15T08:56:08.822Z,6.03
2022-12-15T08:58:35.333Z,6.68
2022-12-15T09:01:04.283Z,6.47
2022-12-15T09:03:31.096Z,6.35
2022-12-15T09:06:05.481Z,7.05
2022-12-15T09:08:32.794Z,6.75
2022-12-15T09:11:00.154Z,6.33
2022-12-15T09:13:27.247Z,5.88
2022-12-15T09:16:13.146Z,6.35
2022-12-15T09:18:42.472Z,6.07
2022-12-15T09:21:09.401Z,6.60
2022-12-15T09:23:36.823Z,6.00
2022-12-15T09:26:14.196Z,6.60
2022-12-15T09:28:41.390Z,6.68
2022-12-15T09:31:14.236Z,6.93
2022-12-15T09:33:41.872Z,6.50
2022-12-15T09:36:09.220Z,7.32
2022-12-15T09:38:40.987Z,6.60
2022-12-15T09:41:13.539Z,7.22
2022-12-15T09:43:50.628Z,7.10
2022-12-15T09:46:42.301Z,6.83
2022-12-15T09:49:21.569Z,7.65
2022-12-15T09:52:01.047Z,7.53
2022-12-15T09:54:33.862Z,7.28
2022-12-15T09:57:08.256Z,6.93
2022-12-15T09:59:57.865Z,6.97
2022-12-15T10:02:33.457Z,7.15
2022-12-15T10:05:21.671Z,7.53
2022-12-15T10:07:50.571Z,7.43
2022-12-15T10:10:29.868Z,7.28
2022-12-15T10:16:00.759Z,7.28
2022-12-15T10:18:35.229Z,8.15
2022-12-15T10:21:02.362Z,7.43
2022-12-15T10:23:29.389Z,7.57
2022-12-15T10:26:19.216Z,6.93
2022-12-15T10:29:11.666Z,7.00
2022-12-15T10:31:54.702Z,6.97
2022-12-15T10:34:25.792Z,7.25
2022-12-15T10:36:53.597Z,6.63
2022-12-15T10:39:21.131Z,6.87
2022-12-15T10:42:21.296Z,8.07
2022-12-15T10:44:51.539Z,7.05
2022-12-15T10:47:20.612Z,7.43
2022-12-15T10:49:48.537Z,7.28
2022-12-15T10:52:28.224Z,6.90
2022-12-15T10:54:55.904Z,7.60
2022-12-15T10:57:28.116Z,6.75
2022-12-15T11:00:00.581Z,7.55
2022-12-15T11:02:33.541Z,7.85
2022-12-15T11:05:15.474Z,7.10
2022-12-15T11:07:49.281Z,7.63
2022-12-15T11:10:24.825Z,8.25
2022-12-15T11:13:00.447Z,7.88
2022-12-15T11:15:38.842Z,9.25
2022-12-15T11:18:12.861Z,8.27
2022-12-15T11:20:54.802Z,8.23
2022-12-15T11:23:37.941Z,8.15
2022-12-15T11:26:22.558Z,7.78
2022-12-15T11:28:56.361Z,8.55
2022-12-15T11:31:36.994Z,7.63
2022-12-15T11:34:11.060Z,8.38
2022-12-15T11:37:24.005Z,7.93
2022-12-15T11:39:56.403Z,7.05
2022-12-15T11:42:47.921Z,7.35
2022-12-15T11:45:30.467Z,7.90
2022-12-15T11:48:14.980Z,7.28
2022-12-15T11:50:57.193Z,7.25
2022-12-15T11:53:32.764Z,7.15
2022-12-15T11:56:15.853Z,6.78
2022-12-15T11:59:20.914Z,6.43
2022-12-15T12:02:13.252Z,6.55
2022-12-15T12:05:15.415Z,7.05
2022-12-15T12:08:06.990Z,6.75
2022-12-15T12:11:02.523Z,6.95
2022-12-15T12:13:42.883Z,6.77
2022-12-15T12:16:27.857Z,7.22
2022-12-15T12:19:01.005Z,7.53
2022-12-15T12:21:35.815Z,6.53
2022-12-15T12:24:23.993Z,6.60
2022-12-15T12:27:02.735Z,7.57
2022-12-15T12:29:43.116Z,7.03
2022-12-15T12:32:21.413Z,7.97
2022-12-15T12:34:47.914Z,7.80
2022-12-15T12:37:35.740Z,8.48
2022-12-15T12:40:16.673Z,7.20
2022-12-15T12:42:53.314Z,7.10
2022-12-15T12:45:24.136Z,7.68
2022-12-15T12:47:54.333Z,7.50
2022-12-15T12:50:23.900Z,7.30
2022-12-15T12:52:55.038Z,7.40
2022-12-15T12:55:26.207Z,7.28
2022-12-15T12:57:54.322Z,7.68
2022-12-15T13:00:27.163Z,7.32
2022-12-15T13:03:10.365Z,8.07
2022-12-15T13:05:38.552Z,8.73
2022-12-15T13:08:08.190Z,8.73
2022-12-15T13:10:43.153Z,9.63
2022-12-15T13:13:18.716Z,10.10
2022-12-15T13:18:57.188Z,9.33
2022-12-15T13:21:51.216Z,9.15
2022-12-15T13:24:41.677Z,9.43
2022-12-15T13:27:17.316Z,9.55
2022-12-15T13:30:08.107Z,10.13
2022-12-15T13:32:57.778Z,10.03
2022-12-15T13:35:31.424Z,8.70
2022-12-15T13:38:03.085Z,9.77
2022-12-15T13:40:35.654Z,10.13
2022-12-15T13:43:05.131Z,10.73
2022-12-15T13:45:36.663Z,10.57
2022-12-15T13:48:32.475Z,10.15
2022-12-15T13:51:21.822Z,9.18
2022-12-15T13:53:56.122Z,8.82
2022-12-15T13:56:50.860Z,9.65
2022-12-15T13:59:39.748Z,9.13
2022-12-15T14:02:31.037Z,9.02
2022-12-15T14:05:13.171Z,9.20
2022-12-15T14:07:54.377Z,9.25
2022-12-15T14:10:27.626Z,8.90
2022-12-15T14:12:57.684Z,10.50
2022-12-15T14:15:31.870Z,9.93
2022-12-15T14:18:01.653Z,10.43
2022-12-15T14:20:32.361Z,10.40
2022-12-15T14:22:59.031Z,11.13
2022-12-15T14:25:29.416Z,10.13
2022-12-15T14:27:56.887Z,10.77
2022-12-15T14:30:33.128Z,10.25
2022-12-15T14:33:07.032Z,11.43
2022-12-15T14:35:42.205Z,10.57
2022-12-15T14:38:17.542Z,11.37
2022-12-15T14:40:49.193Z,11.30
2022-12-15T14:43:24.817Z,10.98
2022-12-15T14:45:56.674Z,11.52
2022-12-15T14:48:41.092Z,11.45
2022-12-15T14:51:12.423Z,10.60
2022-12-15T14:53:41.803Z,11.00
2022-12-15T14:56:30.099Z,11.80
2022-12-15T14:59:18.851Z,10.63
2022-12-15T15:02:10.992Z,11.55
2022-12-15T15:03:10.904Z,7.50
2022-12-15T15:03:16.375Z,9.38
2022-12-15T15:04:37.557Z,11.63
2022-12-15T15:07:17.606Z,11.38
2022-12-15T15:09:46.196Z,11.13
2022-12-15T15:12:21.840Z,11.95
2022-12-15T15:14:51.512Z,11.63
2022-12-15T15:17:25.666Z,12.27
2022-12-15T15:19:57.354Z,11.68
2022-12-15T15:22:41.012Z,10.98
2022-12-15T15:25:45.189Z,11.30
2022-12-15T15:28:13.675Z,11.40
2022-12-15T15:30:43.408Z,13.13
2022-12-15T15:33:10.677Z,13.18
2022-12-15T15:35:37.467Z,12.63
2022-12-15T15:38:23.157Z,13.00
2022-12-15T15:41:01.244Z,13.18
2022-12-15T15:43:28.825Z,12.50
2022-12-15T15:46:01.703Z,12.45
2022-12-15T15:48:47.850Z,12.65
2022-12-15T15:51:15.898Z,12.68
2022-12-15T15:53:42.650Z,13.65
2022-12-15T15:56:15.451Z,12.77
2022-12-15T15:58:46.596Z,13.00
2022-12-15T16:01:13.904Z,14.40
2022-12-15T16:03:41.416Z,14.48
2022-12-15T16:06:16.815Z,13.55
2022-12-15T16:08:44.017Z,13.80
2022-12-15T16:11:12.235Z,13.85
2022-12-15T16:13:39.236Z,15.00
2022-12-15T16:16:06.688Z,13.18
2022-12-15T16:18:33.630Z,13.68
2022-12-15T16:21:00.472Z,14.33
2022-12-15T16:23:29.264Z,13.68
2022-12-15T16:26:00.335Z,14.07
2022-12-15T16:28:29.516Z,14.65
2022-12-15T16:30:58.748Z,14.27
2022-12-15T16:33:25.589Z,14.73
2022-12-15T16:35:52.194Z,14.10
2022-12-15T16:38:25.620Z,14.63
2022-12-15T16:40:53.011Z,14.88
2022-12-15T16:43:24.061Z,14.70
2022-12-15T16:45:53.847Z,14.73
2022-12-15T16:48:20.912Z,13.90
2022-12-15T16:50:52.201Z,15.30
2022-12-15T16:53:30.501Z,14.02
2022-12-15T16:55:59.139Z,15.15
2022-12-15T16:58:27.059Z,14.53
2022-12-15T17:00:53.898Z,16.52
2022-12-15T17:03:26.688Z,15.60
2022-12-15T17:05:56.028Z,15.93
2022-12-15T17:08:54.172Z,16.33
2022-12-15T17:11:24.290Z,16.47
2022-12-15T17:13:53.645Z,16.58
2022-12-15T17:16:22.431Z,15.65
2022-12-15T17:18:49.934Z,15.38
2022-12-15T17:21:47.494Z,16.05
2022-12-15T17:24:17.845Z,15.70
2022-12-15T17:26:44.599Z,14.63
2022-12-15T17:29:18.030Z,15.98
2022-12-15T17:31:44.513Z,15.65
2022-12-15T17:34:27.587Z,15.13
2022-12-15T17:36:55.247Z,17.10
2022-12-15T17:39:22.789Z,17.63
2022-12-15T17:41:59.762Z,16.77
2022-12-15T17:44:36.184Z,15.77
2022-12-15T17:47:05.687Z,15.48
2022-12-15T17:49:36.245Z,14.57
2022-12-15T17:52:07.122Z,16.90
2022-12-15T17:54:33.685Z,16.48
2022-12-15T17:57:00.224Z,16.40
2022-12-15T17:59:26.674Z,16.88
2022-12-15T18:01:56.753Z,15.83
2022-12-15T18:04:23.278Z,20.35
2022-12-15T18:06:49.714Z,18.85
2022-12-15T18:09:17.848Z,16.98
2022-12-15T18:11:46.701Z,15.32
2022-12-15T18:14:15.987Z,17.73
2022-12-15T18:16:43.201Z,17.25
2022-12-15T18:19:09.646Z,18.73
2022-12-15T18:21:36.865Z,18.27
2022-12-15T18:24:03.967Z,15.98
2022-12-15T18:26:37.659Z,15.63
2022-12-15T18:29:12.785Z,16.58
2022-12-15T18:31:39.563Z,15.20
2022-12-15T18:34:15.437Z,16.23
2022-12-15T18:36:41.934Z,16.83
2022-12-15T18:39:18.098Z,16.73
2022-12-15T18:41:44.698Z,16.08
2022-12-15T18:44:20.920Z,16.70
2022-12-15T18:46:48.260Z,16.42
2022-12-15T18:49:14.946Z,16.77
2022-12-15T18:51:41.358Z,17.37
2022-12-15T18:54:16.599Z,15.07
2022-12-15T18:56:43.001Z,17.15
2022-12-15T18:59:17.284Z,17.08
2022-12-15T19:01:47.368Z,16.65
2022-12-15T19:04:14.879Z,16.47
2022-12-15T19:06:41.932Z,15.68
2022-12-15T19:09:17.066Z,17.05
2022-12-15T19:12:15.981Z,15.65
2022-12-15T19:14:43.246Z,15.60
2022-12-15T19:17:38.102Z,16.40
2022-12-15T19:20:35.551Z,16.55
2022-12-15T19:23:03.596Z,16.50
2022-12-15T19:25:31.594Z,15.77
2022-12-15T19:27:59.968Z,16.42
2022-12-15T19:30:38.495Z,17.27
2022-12-15T19:33:08.622Z,16.40
2022-12-15T19:35:37.106Z,15.77
2022-12-15T19:38:04.687Z,16.98
2022-12-15T19:40:32.955Z,16.50
2022-12-15T19:43:00.990Z,17.20
2022-12-15T19:45:31.676Z,16.67
2022-12-15T19:48:00.057Z,17.25
2022-12-15T19:50:36.392Z,16.60
2022-12-15T19:53:10.031Z,16.50
2022-12-15T19:55:38.724Z,15.50
2022-12-15T19:58:31.164Z,15.68
2022-12-15T20:01:01.423Z,17.05
2022-12-15T20:03:29.888Z,16.60
2022-12-15T20:06:01.092Z,16.38
2022-12-15T20:08:32.901Z,17.67
2022-12-15T20:10:59.753Z,16.25
2022-12-15T20:13:26.631Z,16.45
2022-12-15T20:15:55.087Z,16.40
2022-12-15T20:18:21.622Z,17.17
2022-12-15T20:20:49.339Z,16.77
2022-12-15T20:23:18.477Z,17.08
2022-12-15T20:25:45.277Z,16.88
2022-12-15T20:28:21.579Z,17.20
2022-12-15T20:30:48.948Z,15.90
2022-12-15T20:33:15.646Z,14.97
2022-12-15T20:35:44.233Z,16.02
2022-12-15T20:38:30.165Z,15.85
2022-12-15T20:40:56.786Z,19.77
2022-12-15T20:43:25.198Z,16.85
2022-12-15T20:46:01.080Z,16.03
2022-12-15T20:48:29.968Z,15.57
2022-12-15T20:50:57.676Z,17.23
2022-12-15T20:53:26.029Z,16.23
2022-12-15T20:55:54.165Z,16.05
2022-12-15T20:58:21.257Z,16.10
2022-12-15T21:00:49.041Z,17.13
2022-12-15T21:03:31.011Z,18.05
2022-12-15T21:05:58.789Z,16.33
2022-12-15T21:08:27.989Z,16.80
2022-12-15T21:10:59.448Z,15.23
2022-12-15T21:13:30.287Z,15.95
2022-12-15T21:15:57.072Z,16.20
2022-12-15T21:21:18.788Z,15.32
2022-12-15T21:23:45.635Z,15.17
2022-12-15T21:26:13.481Z,14.45
2022-12-15T21:28:39.888Z,15.60
2022-12-15T21:31:06.359Z,15.68
2022-12-15T21:33:33.064Z,15.05
2022-12-15T21:35:59.785Z,15.53
2022-12-15T21:38:36.469Z,15.35
2022-12-15T21:41:06.066Z,15.43
2022-12-15T21:43:35.223Z,14.32
2022-12-15T21:46:03.752Z,14.63
2022-12-15T21:48:48.566Z,15.07
2022-12-15T21:51:17.036Z,13.98
2022-12-15T21:53:45.632Z,14.80
2022-12-15T21:56:18.866Z,15.07
2022-12-15T21:58:48.900Z,14.55
2022-12-15T22:01:18.352Z,14.23
2022-12-15T22:03:50.528Z,14.38
2022-12-15T22:06:19.541Z,14.85
2022-12-15T22:08:46.087Z,15.07
2022-12-15T22:11:24.654Z,14.63
2022-12-15T22:13:53.286Z,14.73
2022-12-15T22:16:22.508Z,14.18
2022-12-15T22:18:51.830Z,14.38
2022-12-15T22:21:18.338Z,15.13
2022-12-15T22:23:45.099Z,15.43
2022-12-15T22:26:22.755Z,14.63
2022-12-15T22:28:51.057Z,16.17
2022-12-15T22:31:18.565Z,15.68
2022-12-15T22:33:45.043Z,15.15
2022-12-15T22:36:11.533Z,16.98
2022-12-15T22:38:37.995Z,15.57
2022-12-15T22:41:06.700Z,16.02
2022-12-15T22:43:40.056Z,15.90
2022-12-15T22:46:09.600Z,15.10
2022-12-15T22:48:41.423Z,15.40
2022-12-15T22:51:13.084Z,15.40
2022-12-15T22:53:39.838Z,14.77
2022-12-15T22:56:21.140Z,15.23
2022-12-15T22:58:50.229Z,14.70
2022-12-15T23:01:18.720Z,15.40
2022-12-15T23:03:45.247Z,15.03
2022-12-15T23:06:11.746Z,15.95
2022-12-15T23:08:38.218Z,15.90
2022-12-15T23:11:23.316Z,15.57
2022-12-15T23:13:49.715Z,15.85
2022-12-15T23:16:22.997Z,15.43
2022-12-15T23:18:54.730Z,15.55
2022-12-15T23:21:22.375Z,16.35
2022-12-15T23:23:49.104Z,16.08
2022-12-15T23:26:16.595Z,15.50
2022-12-15T23:28:43.551Z,16.23
2022-12-15T23:31:10.581Z,14.90
2022-12-15T23:33:41.635Z,15.20
2022-12-15T23:36:09.738Z,15.02
2022-12-15T23:38:36.435Z,15.77
2022-12-15T23:41:02.877Z,15.20
2022-12-15T23:43:32.287Z,16.55
2022-12-15T23:46:07.663Z,15.48
2022-12-15T23:48:38.281Z,16.42
2022-12-15T23:51:17.173Z,17.92
2022-12-15T23:53:45.369Z,15.93
2022-12-15T23:56:17.675Z,16.70
2022-12-15T23:58:45.136Z,15.77
